Abbeville, AL

3:27 AM CDT on July 24, 2014 (GMT -0500)
Pebble Cove (KALABBEV2) Elev 226 ft | 31.71 °N, 85.13 °W | Change Station

Current weather conditions updated 5 minutes ago

Clear
Clear
74.8 °F
Feels Like 73 °F
N
0.0
Wind Variable Wind from West

Today is forecast to be nearly the same temperature as yesterday. Showers and thunderstorms late.

Today
High -- | Low -- °F
--% Chance of Precip.
Yesterday
High -- | Low -- °F
Precip. -- in
5:52 AM 7:42 PM
Waning Crescent, 6% visible
Pressure 30.01 in
Visibility 9.0 miles
Clouds Clear
Heat Index 73 °F
Dew Point 72 °F
Humidity 92%
Rainfall 0.00 in
Snow Depth Not available.
UV 0.0 out of 12
Pollen 3.40 out of 12
Air Quality Not available.
Flu Activity Not available.
METAR KDHN 240753Z AUTO 25004KT 9SM CLR 23/22 A3003 RMK AO2 SLP163 T02330222

More Conditions Fewer Conditions

Pressure 30.01 in
Visibility 9.0 miles
Clouds Clear
Heat Index 73 °F
Dew Point 72 °F
Humidity 92%
Rainfall 0.00 in
Snow Depth Not available.
UV 0.0 out of 12
Pollen 3.40 out of 12
Air Quality Not available.
Flu Activity Not available.
METAR KDHN 240753Z AUTO 25004KT 9SM CLR 23/22 A3003 RMK AO2 SLP163 T02330222

More Conditions Fewer Conditions

10-Day Weather Forecast

Almanac

Astronomy

Jul. 24, 2014 Rise Set
Actual Time 5:52 AM CDT 7:42 PM CDT
Civil Twilight 5:25 AM CDT 8:09 PM CDT
Nautical Twilight 4:52 AM CDT 8:42 PM CDT
Astronomical Twilight 4:18 AM CDT 9:16 PM CDT
Moon 3:58 AM CDT 5:59 PM CDT
Length of Visible Light 14h 44m
Length of Day
13h 50m
Tomorrow will be 1m 14s shorter.
Waning Crescent, 6% of the Moon is Illuminated
Today
Waning Crescent
Jul 26
New
Aug 3
First Quarter
Aug 10
Full
Aug 17
Last Quarter

Today's Extremes

State Highs State Lows

Community

WunderPhotos

Upload Photos

1,736,950 photos uploaded!

Nearby

Snow Depth

Station Depth Elevation
No new snow has been reported.

Earthquake Activity

City Distance Mag. Time & Date
No recent earthquake activity has been reported nearby.
Minimum magnitude displayed is 2.5.

Coastal Water Temperatures

Place Temperature
No Stations Reporting

Nearby Weather Stations

Station Location Temp. Heat Index Dew Point Humidity Wind Precip. Elev Updated Type
Pebble Cove, Abbeville, AL 74.8 °F 73 °F 72 °F 92% West  at  0.0 mph - / hr 226 ft 3:22 AM CDT Normal
Asbury, Ozark, AL 71.2 °F - 70 °F 97% ENE  at  0.0 mph 0.00 in / hr 367 ft 3:27 AM CDT Normal
Dothan, AL 73.6 °F 71 °F 72 °F 94% SSE  at  0.0 mph 0.00 in / hr 300 ft 3:27 AM CDT Rapid Fire

Show More Stations Show Fewer Stations